createdAt,value
2023-09-08T00:01:44.806Z,20.64
2023-09-08T00:04:12.789Z,20.62
2023-09-08T00:06:39.447Z,20.61
2023-09-08T00:09:06.057Z,20.61
2023-09-08T00:11:32.562Z,20.59
2023-09-08T00:13:59.100Z,20.58
2023-09-08T00:16:25.760Z,20.56
2023-09-08T00:18:52.331Z,20.52
2023-09-08T00:21:20.184Z,20.47
2023-09-08T00:23:46.662Z,20.43
2023-09-08T00:26:13.141Z,20.39
2023-09-08T00:28:39.596Z,20.40
2023-09-08T00:31:06.080Z,20.40
2023-09-08T00:33:32.706Z,20.41
2023-09-08T00:35:59.318Z,20.38
2023-09-08T00:38:27.433Z,20.38
2023-09-08T00:40:54.069Z,20.37
2023-09-08T00:43:20.558Z,20.34
2023-09-08T00:45:47.758Z,20.32
2023-09-08T00:48:14.514Z,20.27
2023-09-08T00:50:41.300Z,20.24
2023-09-08T00:53:08.565Z,20.24
2023-09-08T00:55:36.961Z,20.23
2023-09-08T00:58:03.773Z,20.24
2023-09-08T01:00:30.330Z,20.17
2023-09-08T01:02:56.892Z,20.11
2023-09-08T01:05:23.481Z,20.07
2023-09-08T01:07:51.633Z,20.05
2023-09-08T01:10:18.541Z,20.01
2023-09-08T01:12:46.419Z,19.99
2023-09-08T01:15:12.934Z,19.93
2023-09-08T01:17:39.527Z,19.90
2023-09-08T01:20:14.235Z,19.89
2023-09-08T01:22:54.735Z,19.87
2023-09-08T01:25:23.427Z,19.84
2023-09-08T01:27:51.894Z,19.82
2023-09-08T01:30:19.442Z,19.82
2023-09-08T01:32:46.645Z,19.82
2023-09-08T01:35:13.720Z,19.80
2023-09-08T01:37:46.277Z,19.76
2023-09-08T01:40:13.564Z,19.71
2023-09-08T01:42:42.150Z,19.68
2023-09-08T01:45:09.600Z,19.65
2023-09-08T01:47:36.449Z,19.61
2023-09-08T01:50:03.213Z,19.60
2023-09-08T01:52:29.746Z,19.58
2023-09-08T01:54:56.300Z,19.54
2023-09-08T01:57:22.930Z,19.52
2023-09-08T01:59:50.738Z,19.52
2023-09-08T02:02:17.213Z,19.52
2023-09-08T02:04:43.756Z,19.47
2023-09-08T02:07:10.376Z,19.47
2023-09-08T02:09:38.791Z,19.47
2023-09-08T02:12:05.934Z,19.46
2023-09-08T02:14:32.463Z,19.44
2023-09-08T02:17:00.403Z,19.39
2023-09-08T02:19:26.908Z,19.35
2023-09-08T02:21:53.521Z,19.31
2023-09-08T02:24:20.092Z,19.31
2023-09-08T02:26:46.763Z,19.32
2023-09-08T02:29:13.263Z,19.32
2023-09-08T02:31:40.610Z,19.26
2023-09-08T02:34:08.495Z,19.23
2023-09-08T02:36:35.033Z,19.20
2023-09-08T02:39:01.598Z,19.22
2023-09-08T02:41:28.076Z,19.17
2023-09-08T02:43:54.588Z,19.14
2023-09-08T02:46:21.135Z,19.11
2023-09-08T02:48:47.671Z,19.06
2023-09-08T02:51:15.528Z,18.99
2023-09-08T02:53:42.071Z,18.92
2023-09-08T02:56:08.617Z,18.91
2023-09-08T02:58:35.399Z,18.89
2023-09-08T03:01:11.259Z,18.81
2023-09-08T03:03:37.887Z,18.78
2023-09-08T03:06:04.620Z,18.78
2023-09-08T03:08:32.610Z,18.76
2023-09-08T03:11:00.074Z,18.73
2023-09-08T03:13:26.687Z,18.73
2023-09-08T03:15:53.346Z,18.74
2023-09-08T03:18:19.828Z,18.74
2023-09-08T03:20:49.458Z,18.75
2023-09-08T03:23:16.016Z,18.72
2023-09-08T03:25:44.198Z,18.67
2023-09-08T03:28:10.724Z,18.63
2023-09-08T03:30:37.281Z,18.58
2023-09-08T03:33:04.047Z,18.57
2023-09-08T03:35:30.684Z,18.58
2023-09-08T03:37:57.205Z,18.51
2023-09-08T03:40:23.767Z,18.40
2023-09-08T03:42:51.643Z,18.34
2023-09-08T03:45:18.278Z,18.26
2023-09-08T03:47:44.840Z,18.19
2023-09-08T03:50:11.433Z,18.13
2023-09-08T03:52:38.002Z,18.07
2023-09-08T03:55:05.133Z,18.04
2023-09-08T03:57:31.653Z,18.01
2023-09-08T03:59:59.472Z,17.93
2023-09-08T04:02:26.056Z,17.89
2023-09-08T04:04:52.812Z,17.86
2023-09-08T04:07:19.332Z,17.87
2023-09-08T04:09:45.818Z,17.87
2023-09-08T04:12:12.398Z,17.86
2023-09-08T04:14:38.979Z,17.87
2023-09-08T04:17:06.864Z,17.82
2023-09-08T04:19:34.816Z,17.79
2023-09-08T04:22:01.512Z,17.79
2023-09-08T04:24:28.099Z,17.83
2023-09-08T04:26:54.695Z,17.84
2023-09-08T04:29:21.174Z,17.87
2023-09-08T04:31:47.895Z,17.89
2023-09-08T04:34:15.834Z,17.92
2023-09-08T04:36:42.368Z,17.94
2023-09-08T04:39:08.929Z,17.92
2023-09-08T04:41:35.477Z,17.97
2023-09-08T04:44:01.986Z,17.94
2023-09-08T04:46:28.520Z,17.95
2023-09-08T04:48:55.127Z,17.93
2023-09-08T04:51:23.003Z,17.92
2023-09-08T04:53:49.528Z,17.94
2023-09-08T04:56:16.099Z,17.96
2023-09-08T04:58:42.654Z,17.97
2023-09-08T05:01:09.213Z,17.96
2023-09-08T05:03:35.952Z,17.97
2023-09-08T05:06:02.586Z,17.96
2023-09-08T05:08:30.473Z,17.96
2023-09-08T05:10:57.021Z,17.94
2023-09-08T05:13:30.665Z,17.90
2023-09-08T05:15:58.108Z,17.87
2023-09-08T05:18:24.657Z,17.89
2023-09-08T05:20:51.219Z,17.92
2023-09-08T05:23:17.699Z,17.94
2023-09-08T05:25:45.797Z,17.94
2023-09-08T05:28:12.319Z,17.93
2023-09-08T05:30:38.949Z,17.92
2023-09-08T05:33:05.757Z,17.97
2023-09-08T05:35:32.351Z,17.97
2023-09-08T05:37:58.918Z,17.98
2023-09-08T05:40:25.563Z,18.02
2023-09-08T05:42:53.496Z,18.05
2023-09-08T05:45:20.036Z,18.08
2023-09-08T05:47:46.647Z,18.11
2023-09-08T05:50:13.208Z,18.14
2023-09-08T05:52:39.749Z,18.19
2023-09-08T05:55:06.586Z,18.23
2023-09-08T05:57:33.087Z,18.28
2023-09-08T06:00:01.004Z,18.30
2023-09-08T06:02:27.742Z,18.36
2023-09-08T06:04:54.318Z,18.39
2023-09-08T06:07:22.018Z,18.46
2023-09-08T06:09:48.577Z,18.49
2023-09-08T06:12:15.181Z,18.54
2023-09-08T06:14:43.920Z,18.57
2023-09-08T06:17:12.079Z,18.63
2023-09-08T06:19:38.662Z,18.70
2023-09-08T06:22:05.207Z,18.75
2023-09-08T06:24:31.666Z,18.78
2023-09-08T06:26:58.188Z,18.78
2023-09-08T06:29:24.710Z,18.79
2023-09-08T06:31:51.201Z,18.80
2023-09-08T06:34:19.283Z,18.83
2023-09-08T06:36:46.001Z,18.86
2023-09-08T06:39:12.575Z,18.89
2023-09-08T06:41:39.118Z,18.96
2023-09-08T06:44:06.458Z,19.02
2023-09-08T06:46:33.045Z,19.11
2023-09-08T06:48:59.561Z,19.18
2023-09-08T06:51:27.519Z,19.27
2023-09-08T06:53:57.860Z,19.33
2023-09-08T06:56:24.473Z,19.39
2023-09-08T06:58:50.952Z,19.46
2023-09-08T07:01:17.625Z,19.53
2023-09-08T07:03:44.391Z,19.61
2023-09-08T07:06:11.097Z,19.68
2023-09-08T07:08:39.018Z,19.76
2023-09-08T07:11:05.650Z,19.85
2023-09-08T07:13:32.310Z,19.95
2023-09-08T07:15:58.915Z,20.03
2023-09-08T07:18:25.784Z,20.12
2023-09-08T07:20:52.316Z,20.19
2023-09-08T07:23:18.998Z,20.27
2023-09-08T07:25:47.930Z,20.37
2023-09-08T07:28:14.546Z,20.45
2023-09-08T07:30:41.231Z,20.52
2023-09-08T07:33:08.024Z,20.58
2023-09-08T07:35:37.633Z,20.69
2023-09-08T07:38:04.426Z,20.78
2023-09-08T07:40:31.050Z,20.88
2023-09-08T07:42:58.887Z,20.97
2023-09-08T07:45:25.532Z,21.05
2023-09-08T07:47:52.471Z,21.18
2023-09-08T07:50:21.324Z,21.27
2023-09-08T07:52:48.148Z,21.37
2023-09-08T07:55:15.013Z,21.47
2023-09-08T07:57:43.226Z,21.56
2023-09-08T08:00:12.153Z,21.65
2023-09-08T08:02:38.914Z,21.75
2023-09-08T08:05:06.145Z,21.87
2023-09-08T08:07:32.623Z,21.99
2023-09-08T08:09:59.317Z,22.09
2023-09-08T08:12:25.797Z,22.20
2023-09-08T08:14:52.397Z,22.30
2023-09-08T08:17:20.263Z,22.43
2023-09-08T08:19:46.839Z,22.48
2023-09-08T08:22:13.374Z,22.55
2023-09-08T08:24:40.099Z,22.68
2023-09-08T08:27:06.652Z,22.79
2023-09-08T08:29:33.184Z,22.89
2023-09-08T08:31:59.685Z,22.97
2023-09-08T08:34:27.572Z,23.05
2023-09-08T08:36:54.187Z,23.12
2023-09-08T08:39:20.792Z,23.20
2023-09-08T08:41:47.354Z,23.25
2023-09-08T08:44:16.423Z,23.31
2023-09-08T08:46:44.144Z,23.40
2023-09-08T08:49:12.108Z,23.49
2023-09-08T08:51:41.614Z,23.59
2023-09-08T08:54:08.171Z,23.67
2023-09-08T08:56:37.278Z,23.72
2023-09-08T08:59:05.032Z,23.81
2023-09-08T09:01:32.440Z,23.90
2023-09-08T09:03:59.369Z,24.04
2023-09-08T09:06:26.040Z,24.13
2023-09-08T09:08:53.934Z,24.26
2023-09-08T09:11:20.478Z,24.35
2023-09-08T09:13:47.051Z,24.39
2023-09-08T09:16:13.569Z,24.45
2023-09-08T09:18:57.303Z,24.54
2023-09-08T09:21:24.552Z,24.63
2023-09-08T09:23:51.170Z,24.79
2023-09-08T09:26:26.661Z,24.93
2023-09-08T09:28:53.484Z,25.02
2023-09-08T09:31:20.098Z,25.16
2023-09-08T09:33:46.665Z,25.20
2023-09-08T09:36:21.812Z,25.25
2023-09-08T09:38:48.390Z,25.29
2023-09-08T09:41:15.064Z,25.45
2023-09-08T09:43:43.605Z,25.55
2023-09-08T09:46:10.433Z,25.62
2023-09-08T09:48:37.616Z,25.71
2023-09-08T09:51:16.756Z,25.86
2023-09-08T09:53:43.870Z,25.93
2023-09-08T09:56:11.984Z,25.95
2023-09-08T09:58:39.113Z,25.98
2023-09-08T10:01:07.378Z,26.09
2023-09-08T10:03:34.474Z,26.19
2023-09-08T10:06:01.268Z,26.29
2023-09-08T10:08:28.549Z,26.32
2023-09-08T10:10:55.954Z,26.42
2023-09-08T10:13:28.034Z,26.57
2023-09-08T10:15:58.320Z,26.72
2023-09-08T10:18:27.747Z,26.84
2023-09-08T10:20:57.634Z,26.94
2023-09-08T10:23:32.544Z,26.95
2023-09-08T10:26:04.079Z,27.01
2023-09-08T10:28:31.651Z,27.11
2023-09-08T10:30:58.766Z,27.15
2023-09-08T10:33:27.765Z,27.21
2023-09-08T10:35:54.982Z,27.30
2023-09-08T10:38:26.451Z,27.43
2023-09-08T10:40:53.358Z,27.49
2023-09-08T10:43:20.410Z,27.55
2023-09-08T10:45:47.222Z,27.59
2023-09-08T10:48:15.008Z,27.63
2023-09-08T10:50:43.138Z,27.67
2023-09-08T10:53:14.126Z,27.71
2023-09-08T10:55:42.050Z,27.80
2023-09-08T10:58:10.738Z,27.95
2023-09-08T11:00:47.928Z,28.03
2023-09-08T11:03:15.222Z,28.11
2023-09-08T11:05:43.967Z,28.22
2023-09-08T11:08:10.446Z,28.32
2023-09-08T11:10:37.092Z,28.43
2023-09-08T11:13:03.726Z,28.54
2023-09-08T11:15:30.260Z,28.60
2023-09-08T11:17:56.966Z,28.72
2023-09-08T11:20:27.451Z,28.75
2023-09-08T11:22:55.563Z,28.74
2023-09-08T11:25:22.107Z,28.77
2023-09-08T11:27:49.686Z,28.81
2023-09-08T11:30:16.275Z,28.87
2023-09-08T11:32:42.872Z,28.87
2023-09-08T11:35:11.069Z,28.90
2023-09-08T11:37:38.721Z,28.95
2023-09-08T11:40:08.217Z,28.95
2023-09-08T11:42:34.804Z,28.97
2023-09-08T11:45:01.486Z,29.02
2023-09-08T11:47:28.096Z,29.09
2023-09-08T11:49:54.688Z,29.22
2023-09-08T11:52:23.839Z,29.31
2023-09-08T11:55:05.823Z,29.38
2023-09-08T11:57:35.766Z,29.41
2023-09-08T12:00:03.432Z,29.45
2023-09-08T12:02:30.080Z,29.50
2023-09-08T12:04:56.598Z,29.54
2023-09-08T12:07:23.159Z,29.56
2023-09-08T12:09:49.816Z,29.57
2023-09-08T12:12:16.385Z,29.59
2023-09-08T12:14:47.574Z,29.62
2023-09-08T12:17:14.851Z,29.64
2023-09-08T12:19:41.382Z,29.66
2023-09-08T12:22:08.226Z,29.67
2023-09-08T12:24:56.966Z,29.73
2023-09-08T12:27:24.322Z,29.74
2023-09-08T12:29:56.554Z,29.73
2023-09-08T12:32:23.755Z,29.74
2023-09-08T12:34:51.426Z,29.73
2023-09-08T12:37:21.464Z,29.75
2023-09-08T12:39:48.022Z,29.73
2023-09-08T12:42:14.616Z,29.67
2023-09-08T12:44:41.427Z,29.64
2023-09-08T12:47:11.333Z,29.63
2023-09-08T12:49:37.960Z,29.61
2023-09-08T12:52:05.172Z,29.58
2023-09-08T12:54:31.714Z,29.51
2023-09-08T12:56:58.222Z,29.46
2023-09-08T12:59:24.767Z,29.42
2023-09-08T13:01:51.501Z,29.38
2023-09-08T13:04:19.513Z,29.33
2023-09-08T13:06:46.234Z,29.23
2023-09-08T13:09:12.725Z,29.17
2023-09-08T13:11:39.321Z,29.14
2023-09-08T13:14:05.842Z,29.13
2023-09-08T13:16:32.498Z,29.08
2023-09-08T13:18:59.461Z,29.03
2023-09-08T13:21:27.435Z,28.96
2023-09-08T13:23:53.926Z,28.90
2023-09-08T13:26:20.527Z,28.88
2023-09-08T13:28:47.045Z,28.86
2023-09-08T13:31:13.610Z,28.85
2023-09-08T13:33:40.130Z,28.85
2023-09-08T13:36:07.478Z,28.82
2023-09-08T13:38:36.350Z,28.82
2023-09-08T13:41:03.032Z,28.76
2023-09-08T13:43:29.513Z,28.67
2023-09-08T13:45:56.034Z,28.64
2023-09-08T13:48:24.963Z,28.62
2023-09-08T13:50:54.005Z,28.64
2023-09-08T13:53:21.553Z,28.62
2023-09-08T13:55:51.325Z,28.59
2023-09-08T13:58:20.151Z,28.55
2023-09-08T14:00:47.890Z,28.55
2023-09-08T14:03:21.985Z,28.55
2023-09-08T14:05:54.089Z,28.54
2023-09-08T14:08:28.218Z,28.55
2023-09-08T14:13:26.880Z,28.49
2023-09-08T14:15:54.484Z,28.47
2023-09-08T14:18:21.165Z,28.46
2023-09-08T14:20:47.638Z,28.46
2023-09-08T14:23:14.302Z,28.46
2023-09-08T14:25:40.928Z,28.45
2023-09-08T14:28:08.829Z,28.45
2023-09-08T14:30:35.920Z,28.44
2023-09-08T14:33:02.579Z,28.44
2023-09-08T14:35:29.090Z,28.45
2023-09-08T14:37:55.671Z,28.47
2023-09-08T14:40:23.999Z,28.48
2023-09-08T14:42:53.898Z,28.48
2023-09-08T14:45:22.395Z,28.49
2023-09-08T14:47:49.022Z,28.50
2023-09-08T14:50:15.641Z,28.50
2023-09-08T14:52:42.166Z,28.49
2023-09-08T14:55:09.111Z,28.51
2023-09-08T14:57:35.761Z,28.53
2023-09-08T15:00:03.152Z,28.58
2023-09-08T15:02:31.145Z,28.60
2023-09-08T15:04:57.758Z,28.61
2023-09-08T15:07:24.354Z,28.65
2023-09-08T15:09:50.917Z,28.71
2023-09-08T15:12:17.477Z,28.75
2023-09-08T15:14:44.072Z,28.80
2023-09-08T15:17:11.760Z,28.79
2023-09-08T15:19:39.770Z,28.74
2023-09-08T15:22:06.256Z,28.69
2023-09-08T15:24:32.744Z,28.65
2023-09-08T15:26:59.278Z,28.59
2023-09-08T15:29:25.791Z,28.56
2023-09-08T15:31:52.394Z,28.57
2023-09-08T15:34:18.997Z,28.60
2023-09-08T15:36:46.818Z,28.69
2023-09-08T15:39:13.433Z,28.78
2023-09-08T15:41:40.061Z,28.74
2023-09-08T15:44:06.616Z,28.69
2023-09-08T15:46:33.158Z,28.63
2023-09-08T15:48:59.730Z,28.56
2023-09-08T15:51:26.275Z,28.50
2023-09-08T15:53:54.156Z,28.46
2023-09-08T15:56:20.637Z,28.41
2023-09-08T15:58:47.223Z,28.37
2023-09-08T16:01:13.805Z,28.34
2023-09-08T16:03:42.767Z,28.31
2023-09-08T16:06:09.652Z,28.29
2023-09-08T16:08:37.571Z,28.28
2023-09-08T16:11:05.890Z,28.29
2023-09-08T16:13:32.739Z,28.25
2023-09-08T16:15:59.352Z,28.25
2023-09-08T16:18:26.021Z,28.25
2023-09-08T16:20:53.275Z,28.24
2023-09-08T16:23:19.887Z,28.23
2023-09-08T16:25:46.484Z,28.21
2023-09-08T16:28:14.319Z,28.18
2023-09-08T16:30:40.915Z,28.15
2023-09-08T16:33:07.471Z,28.10
2023-09-08T16:35:34.685Z,28.05
2023-09-08T16:38:01.227Z,28.00
2023-09-08T16:40:27.809Z,27.99
2023-09-08T16:42:54.369Z,27.96
2023-09-08T16:45:22.169Z,27.93
2023-09-08T16:47:48.703Z,27.88
2023-09-08T16:50:15.236Z,27.83
2023-09-08T16:52:41.905Z,27.79
2023-09-08T16:55:08.898Z,27.76
2023-09-08T16:57:35.429Z,27.74
2023-09-08T17:00:02.298Z,27.71
2023-09-08T17:02:30.321Z,27.68
2023-09-08T17:04:57.048Z,27.65
2023-09-08T17:07:23.716Z,27.64
2023-09-08T17:09:50.338Z,27.63
2023-09-08T17:12:16.878Z,27.60
2023-09-08T17:14:43.543Z,27.58
2023-09-08T17:17:10.085Z,27.54
2023-09-08T17:19:37.907Z,27.52
2023-09-08T17:22:04.584Z,27.48
2023-09-08T17:24:31.078Z,27.45
2023-09-08T17:26:57.968Z,27.41
2023-09-08T17:29:24.599Z,27.35
2023-09-08T17:31:51.135Z,27.30
2023-09-08T17:34:19.577Z,27.25
2023-09-08T17:36:47.433Z,27.18
2023-09-08T17:39:14.042Z,27.13
2023-09-08T17:41:40.521Z,27.06
2023-09-08T17:44:07.080Z,27.00
2023-09-08T17:46:33.687Z,26.94
2023-09-08T17:49:00.245Z,26.85
2023-09-08T17:51:26.745Z,26.78
2023-09-08T17:53:54.615Z,26.71
2023-09-08T17:56:21.080Z,26.64
2023-09-08T17:58:47.604Z,26.56
2023-09-08T18:01:14.367Z,26.47
2023-09-08T18:03:41.213Z,26.38
2023-09-08T18:06:08.076Z,26.28
2023-09-08T18:08:34.609Z,26.20
2023-09-08T18:11:03.398Z,26.13
2023-09-08T18:13:29.966Z,26.04
2023-09-08T18:15:58.274Z,25.94
2023-09-08T18:18:24.878Z,25.84
2023-09-08T18:20:51.525Z,25.75
2023-09-08T18:23:18.453Z,25.66
2023-09-08T18:25:45.161Z,25.56
2023-09-08T18:28:14.920Z,25.45
2023-09-08T18:30:41.950Z,25.37
2023-09-08T18:33:08.568Z,25.28
2023-09-08T18:35:35.254Z,25.18
2023-09-08T18:38:02.089Z,25.08
2023-09-08T18:40:28.629Z,24.99
2023-09-08T18:42:55.165Z,24.93
2023-09-08T18:45:23.154Z,24.87
2023-09-08T18:47:49.792Z,24.82
2023-09-08T18:50:16.389Z,24.72
2023-09-08T18:52:42.970Z,24.64
2023-09-08T18:55:09.583Z,24.58
2023-09-08T18:57:36.102Z,24.51
2023-09-08T19:00:02.694Z,24.46
2023-09-08T19:02:30.755Z,24.40
2023-09-08T19:04:57.500Z,24.35
2023-09-08T19:07:24.159Z,24.33
2023-09-08T19:09:50.654Z,24.27
2023-09-08T19:12:17.197Z,24.22
2023-09-08T19:14:43.743Z,24.18
2023-09-08T19:17:10.315Z,24.15
2023-09-08T19:19:38.128Z,24.11
2023-09-08T19:22:04.622Z,24.07
2023-09-08T19:24:31.203Z,24.01
2023-09-08T19:26:57.782Z,23.93
2023-09-08T19:29:24.263Z,23.84
2023-09-08T19:31:50.844Z,23.78
2023-09-08T19:34:17.386Z,23.74
2023-09-08T19:36:45.225Z,23.71
2023-09-08T19:39:11.923Z,23.69
2023-09-08T19:41:38.393Z,23.66
2023-09-08T19:44:05.260Z,23.63
2023-09-08T19:46:35.664Z,23.57
2023-09-08T19:49:02.560Z,23.55
2023-09-08T19:51:29.237Z,23.51
2023-09-08T19:53:57.315Z,23.44
2023-09-08T19:56:24.573Z,23.39
2023-09-08T19:58:51.097Z,23.34
2023-09-08T20:01:18.103Z,23.28
2023-09-08T20:03:44.661Z,23.22
2023-09-08T20:06:13.826Z,23.19
2023-09-08T20:08:40.381Z,23.17
2023-09-08T20:11:08.497Z,23.13
2023-09-08T20:13:35.385Z,23.07
2023-09-08T20:16:04.218Z,23.03
2023-09-08T20:18:30.897Z,23.01
2023-09-08T20:20:59.299Z,22.99
2023-09-08T20:23:25.889Z,22.96
2023-09-08T20:25:52.604Z,22.92
2023-09-08T20:28:20.681Z,22.88
2023-09-08T20:30:58.387Z,22.85
2023-09-08T20:33:36.092Z,22.81
2023-09-08T20:36:02.740Z,22.79
2023-09-08T20:38:29.439Z,22.75
2023-09-08T20:40:56.073Z,22.71
2023-09-08T20:43:32.257Z,22.66
2023-09-08T20:46:02.002Z,22.63
2023-09-08T20:48:28.552Z,22.58
2023-09-08T20:50:59.540Z,22.54
2023-09-08T20:53:26.056Z,22.49
2023-09-08T20:55:52.634Z,22.46
2023-09-08T20:58:19.089Z,22.45
2023-09-08T21:00:47.000Z,22.43
2023-09-08T21:03:13.536Z,22.39
2023-09-08T21:05:40.113Z,22.36
2023-09-08T21:08:07.062Z,22.32
2023-09-08T21:10:33.544Z,22.26
2023-09-08T21:13:00.213Z,22.22
2023-09-08T21:15:26.788Z,22.15
2023-09-08T21:17:54.702Z,22.06
2023-09-08T21:20:21.335Z,22.03
2023-09-08T21:22:47.833Z,22.01
2023-09-08T21:25:14.356Z,21.97
2023-09-08T21:27:40.901Z,21.93
2023-09-08T21:30:08.391Z,21.87
2023-09-08T21:32:34.958Z,21.85
2023-09-08T21:35:02.912Z,21.83
2023-09-08T21:37:29.445Z,21.77
2023-09-08T21:39:56.101Z,21.77
2023-09-08T21:42:22.657Z,21.76
2023-09-08T21:44:49.203Z,21.76
2023-09-08T21:47:15.698Z,21.74
2023-09-08T21:49:42.348Z,21.72
2023-09-08T21:52:10.700Z,21.70
2023-09-08T21:54:38.228Z,21.71
2023-09-08T21:57:05.255Z,21.72
2023-09-08T21:59:31.847Z,21.72
2023-09-08T22:01:58.359Z,21.70
2023-09-08T22:04:25.094Z,21.64
2023-09-08T22:06:51.722Z,21.63
2023-09-08T22:09:19.992Z,21.58
2023-09-08T22:11:46.703Z,21.54
2023-09-08T22:14:14.208Z,21.52
2023-09-08T22:16:40.929Z,21.49
2023-09-08T22:19:07.950Z,21.43
2023-09-08T22:21:34.558Z,21.40
2023-09-08T22:24:01.232Z,21.36
2023-09-08T22:26:29.193Z,21.33
2023-09-08T22:28:55.749Z,21.32
2023-09-08T22:31:22.346Z,21.31
2023-09-08T22:33:49.065Z,21.24
2023-09-08T22:36:16.338Z,21.25
2023-09-08T22:38:42.861Z,21.22
2023-09-08T22:41:09.397Z,21.18
2023-09-08T22:43:37.405Z,21.15
2023-09-08T22:46:04.110Z,21.14
2023-09-08T22:48:30.625Z,21.15
2023-09-08T22:50:57.121Z,21.05
2023-09-08T22:53:23.667Z,21.04
2023-09-08T22:55:50.322Z,21.04
2023-09-08T22:58:16.980Z,20.98
2023-09-08T23:00:44.908Z,20.97
2023-09-08T23:03:11.560Z,20.91
2023-09-08T23:05:38.219Z,20.90
2023-09-08T23:08:05.145Z,20.83
2023-09-08T23:10:31.672Z,20.82
2023-09-08T23:12:58.181Z,20.81
2023-09-08T23:15:24.728Z,20.78
2023-09-08T23:17:52.764Z,20.78
2023-09-08T23:20:19.391Z,20.76
2023-09-08T23:22:45.926Z,20.78
2023-09-08T23:25:12.463Z,20.75
2023-09-08T23:27:39.346Z,20.75
2023-09-08T23:30:07.477Z,20.68
2023-09-08T23:32:34.103Z,20.65
2023-09-08T23:35:02.075Z,20.63
2023-09-08T23:37:28.582Z,20.60
2023-09-08T23:39:55.119Z,20.59
2023-09-08T23:42:21.618Z,20.59
2023-09-08T23:44:48.147Z,20.58
2023-09-08T23:47:14.703Z,20.59
2023-09-08T23:49:41.178Z,20.57
2023-09-08T23:52:09.010Z,20.56
2023-09-08T23:54:35.519Z,20.53
2023-09-08T23:57:02.227Z,20.50
2023-09-08T23:59:28.790Z,20.46
